createdAt,value
2022-12-27T00:00:17.905Z,1018.319066
2022-12-27T00:05:17.936Z,1018.330760
2022-12-27T00:10:17.958Z,1018.433771
2022-12-27T00:15:18.057Z,1018.586147
2022-12-27T00:20:17.935Z,1018.741751
2022-12-27T00:25:17.882Z,1018.766237
2022-12-27T00:30:18.144Z,1018.910841
2022-12-27T00:35:17.904Z,1019.015467
2022-12-27T00:40:17.868Z,1019.012377
2022-12-27T00:45:17.857Z,1019.091606
2022-12-27T00:50:17.975Z,1019.176431
2022-12-27T00:55:17.912Z,1019.259661
2022-12-27T01:00:17.921Z,1019.291372
2022-12-27T01:05:17.945Z,1019.421780
2022-12-27T01:10:17.874Z,1019.538862
2022-12-27T01:15:18.198Z,1019.578665
2022-12-27T01:20:17.981Z,1019.647468
2022-12-27T01:25:17.848Z,1019.729420
2022-12-27T01:30:17.823Z,1019.809746
2022-12-27T01:35:17.897Z,1019.901600
2022-12-27T01:40:17.856Z,1020.001378
2022-12-27T01:45:18.349Z,1020.069466
2022-12-27T01:50:17.835Z,1020.083871
2022-12-27T01:55:17.889Z,1020.178790
2022-12-27T02:00:18.502Z,1020.294958
2022-12-27T02:05:17.947Z,1020.405546
2022-12-27T02:10:17.875Z,1020.521544
2022-12-27T02:15:17.904Z,1020.606199
2022-12-27T02:20:17.889Z,1020.666721
2022-12-27T02:25:17.943Z,1020.749221
2022-12-27T02:30:17.930Z,1020.758587
2022-12-27T02:35:17.849Z,1020.789570
2022-12-27T02:40:18.037Z,1020.919090
2022-12-27T02:45:17.936Z,1020.951881
2022-12-27T02:50:17.991Z,1020.946672
2022-12-27T02:55:17.944Z,1021.046497
2022-12-27T03:00:17.981Z,1021.142366
2022-12-27T03:05:17.852Z,1021.175370
2022-12-27T03:10:17.793Z,1021.330511
2022-12-27T03:15:17.898Z,1021.532854
2022-12-27T03:20:17.896Z,1021.486240
2022-12-27T03:25:17.873Z,1021.521586
2022-12-27T03:30:17.952Z,1021.547743
2022-12-27T03:35:18.063Z,1021.632082
2022-12-27T03:40:17.816Z,1021.620577
2022-12-27T03:45:18.085Z,1021.706362
2022-12-27T03:50:17.826Z,1021.866209
2022-12-27T03:55:18.212Z,1021.892376
2022-12-27T04:00:17.907Z,1021.952195
2022-12-27T04:05:18.008Z,1021.925554
2022-12-27T04:10:17.816Z,1021.935658
2022-12-27T04:15:18.159Z,1021.899081
2022-12-27T04:20:17.920Z,1021.960857
2022-12-27T04:25:17.803Z,1022.023558
2022-12-27T04:30:17.783Z,1022.044434
2022-12-27T04:35:17.994Z,1021.989288
2022-12-27T04:40:17.873Z,1022.006526
2022-12-27T04:45:17.873Z,1021.969741
2022-12-27T04:50:18.042Z,1022.067898
2022-12-27T04:55:17.997Z,1022.070210
2022-12-27T05:00:17.836Z,1022.056330
2022-12-27T05:05:17.839Z,1022.087661
2022-12-27T05:10:17.895Z,1022.050553
2022-12-27T05:15:18.141Z,1022.075974
2022-12-27T05:20:17.825Z,1022.145542
2022-12-27T05:25:17.807Z,1022.232601
2022-12-27T05:30:17.874Z,1022.409369
2022-12-27T05:35:17.831Z,1022.497876
2022-12-27T05:40:18.177Z,1022.541493
2022-12-27T05:45:17.859Z,1022.601328
2022-12-27T05:50:18.099Z,1022.670706
2022-12-27T05:55:18.163Z,1022.717788
2022-12-27T06:00:17.865Z,1022.695839
2022-12-27T06:05:17.825Z,1022.764672
2022-12-27T06:10:17.817Z,1022.829876
2022-12-27T06:15:17.979Z,1022.884643
2022-12-27T06:20:18.164Z,1022.985531
2022-12-27T06:25:17.847Z,1022.998502
2022-12-27T06:30:17.770Z,1023.059034
2022-12-27T06:35:17.892Z,1023.109661
2022-12-27T06:40:17.778Z,1023.076694
2022-12-27T06:45:17.780Z,1023.066971
2022-12-27T06:50:17.716Z,1023.077059
2022-12-27T06:55:17.929Z,1023.108949
2022-12-27T07:00:17.940Z,1023.172875
2022-12-27T07:05:17.762Z,1023.245796
2022-12-27T07:10:17.762Z,1023.257273
2022-12-27T07:15:17.794Z,1023.260652
2022-12-27T07:20:17.985Z,1023.247283
2022-12-27T07:25:17.763Z,1023.299184
2022-12-27T07:30:17.775Z,1023.331090
2022-12-27T07:35:17.855Z,1023.397751
2022-12-27T07:40:18.319Z,1023.551781
2022-12-27T07:45:17.676Z,1023.609430
2022-12-27T07:50:17.751Z,1023.650844
2022-12-27T07:56:00.130Z,1023.661247
2022-12-27T08:00:17.735Z,1023.767041
2022-12-27T08:05:20.377Z,1023.814134
2022-12-27T08:10:18.212Z,1023.853333
2022-12-27T08:15:17.858Z,1023.890382
2022-12-27T08:20:17.755Z,1023.907088
2022-12-27T08:25:17.692Z,1023.955308
2022-12-27T08:30:17.673Z,1024.055063
2022-12-27T08:35:50.968Z,1024.002430
2022-12-27T08:40:17.900Z,1023.912873
2022-12-27T08:45:17.744Z,1023.892323
2022-12-27T08:50:17.821Z,1023.954849
2022-12-27T08:55:17.726Z,1023.914081
2022-12-27T09:00:17.988Z,1023.770524
2022-12-27T09:05:17.760Z,1023.755036
2022-12-27T09:10:17.741Z,1023.686357
2022-12-27T09:15:18.045Z,1023.640028
2022-12-27T09:20:17.857Z,1023.667754
2022-12-27T09:25:17.778Z,1023.632263
2022-12-27T09:30:18.147Z,1023.621638
2022-12-27T09:35:17.999Z,1023.567788
2022-12-27T09:40:17.724Z,1023.513945
2022-12-27T09:45:17.707Z,1023.482275
2022-12-27T09:50:17.700Z,1023.517608
2022-12-27T09:55:19.098Z,1023.541808
2022-12-27T10:00:17.783Z,1023.497919
2022-12-27T10:05:20.784Z,1023.445388
2022-12-27T10:10:17.905Z,1023.455908
2022-12-27T10:15:17.774Z,1023.468745
2022-12-27T10:20:18.149Z,1023.487925
2022-12-27T10:25:17.747Z,1023.483861
2022-12-27T10:30:17.824Z,1023.452373
2022-12-27T10:35:17.742Z,1023.416754
2022-12-27T10:40:17.711Z,1023.404709
2022-12-27T10:45:17.734Z,1023.453636
2022-12-27T10:50:17.730Z,1023.514636
2022-12-27T10:55:17.900Z,1023.530748
2022-12-27T11:00:17.932Z,1023.625044
2022-12-27T11:05:18.070Z,1023.665904
2022-12-27T11:10:17.908Z,1023.805515
2022-12-27T11:15:17.767Z,1023.779376
2022-12-27T11:20:18.006Z,1023.874029
2022-12-27T11:25:17.738Z,1023.831311
2022-12-27T11:30:17.717Z,1023.887416
2022-12-27T11:35:17.721Z,1023.949720
2022-12-27T11:40:17.976Z,1023.848588
2022-12-27T11:45:18.039Z,1023.827719
2022-12-27T11:50:17.899Z,1023.769308
2022-12-27T11:55:17.716Z,1023.800307
2022-12-27T12:00:17.640Z,1023.876238
2022-12-27T12:05:17.910Z,1023.936323
2022-12-27T12:10:17.931Z,1023.884452
2022-12-27T12:15:17.731Z,1023.874385
2022-12-27T12:20:17.680Z,1023.925385
2022-12-27T12:25:17.758Z,1023.877800
2022-12-27T12:30:22.394Z,1023.877660
2022-12-27T12:35:17.855Z,1023.997466
2022-12-27T12:40:17.707Z,1023.991603
2022-12-27T12:45:18.112Z,1024.020835
2022-12-27T12:50:17.651Z,1024.059737
2022-12-27T12:55:17.803Z,1024.158029
2022-12-27T13:00:17.654Z,1024.163595
2022-12-27T13:05:17.715Z,1024.159628
2022-12-27T13:10:17.759Z,1024.139775
2022-12-27T13:15:18.021Z,1024.162473
2022-12-27T13:20:17.623Z,1024.132259
2022-12-27T13:25:17.640Z,1024.084912
2022-12-27T13:30:17.690Z,1024.021434
2022-12-27T13:35:20.167Z,1024.012341
2022-12-27T13:40:17.679Z,1024.049110
2022-12-27T13:45:17.644Z,1024.104044
2022-12-27T13:50:17.746Z,1024.180275
2022-12-27T13:55:17.793Z,1024.212144
2022-12-27T14:00:17.826Z,1024.253976
2022-12-27T14:05:17.639Z,1024.250363
2022-12-27T14:10:17.950Z,1024.239526
2022-12-27T14:15:17.803Z,1024.258830
2022-12-27T14:20:17.880Z,1024.349846
2022-12-27T14:25:18.146Z,1024.456240
2022-12-27T14:30:17.860Z,1024.470308
2022-12-27T14:35:17.783Z,1024.484835
2022-12-27T14:40:17.701Z,1024.456193
2022-12-27T14:45:17.719Z,1024.550413
2022-12-27T14:50:17.832Z,1024.645437
2022-12-27T14:55:17.722Z,1024.676884
2022-12-27T15:00:17.687Z,1024.736297
2022-12-27T15:05:17.587Z,1024.677564
2022-12-27T15:10:17.602Z,1024.653602
2022-12-27T15:15:17.734Z,1024.555077
2022-12-27T15:20:17.612Z,1024.536356
2022-12-27T15:25:17.737Z,1024.491676
2022-12-27T15:30:17.663Z,1024.460690
2022-12-27T15:35:17.765Z,1024.458349
2022-12-27T15:40:17.649Z,1024.459619
2022-12-27T15:45:17.573Z,1024.536359
2022-12-27T15:50:18.188Z,1024.571658
2022-12-27T15:55:17.779Z,1024.516531
2022-12-27T16:00:17.670Z,1024.570383
2022-12-27T16:05:17.646Z,1024.596862
2022-12-27T16:10:17.587Z,1024.601187
2022-12-27T16:15:17.696Z,1024.587139
2022-12-27T16:20:18.002Z,1024.566977
2022-12-27T16:25:17.811Z,1024.586625
2022-12-27T16:30:17.661Z,1024.646435
2022-12-27T16:35:17.706Z,1024.719035
2022-12-27T16:40:17.747Z,1024.718501
2022-12-27T16:45:17.635Z,1024.705394
2022-12-27T16:50:17.695Z,1024.735065
2022-12-27T16:55:17.575Z,1024.774001
2022-12-27T17:00:17.592Z,1024.863712
2022-12-27T17:05:17.593Z,1024.917108
2022-12-27T17:10:17.904Z,1024.958668
2022-12-27T17:15:17.636Z,1024.968457
2022-12-27T17:20:17.828Z,1024.931796
2022-12-27T17:25:17.736Z,1024.879813
2022-12-27T17:30:17.767Z,1024.786209
2022-12-27T17:35:17.555Z,1024.771703
2022-12-27T17:40:17.770Z,1024.743552
2022-12-27T17:45:17.728Z,1024.666783
2022-12-27T17:50:17.921Z,1024.632719
2022-12-27T17:55:17.570Z,1024.661958
2022-12-27T18:00:17.571Z,1024.635229
2022-12-27T18:05:17.503Z,1024.590737
2022-12-27T18:10:17.578Z,1024.617215
2022-12-27T18:15:17.852Z,1024.656664
2022-12-27T18:20:17.565Z,1024.619199
2022-12-27T18:25:17.645Z,1024.550935
2022-12-27T18:30:17.608Z,1024.476906
2022-12-27T18:35:24.001Z,1024.410979
2022-12-27T18:40:17.499Z,1024.398007
2022-12-27T18:45:18.091Z,1024.413861
2022-12-27T18:50:17.559Z,1024.437095
2022-12-27T18:55:17.535Z,1024.453589
2022-12-27T19:00:17.850Z,1024.480869
2022-12-27T19:05:17.637Z,1024.428815
2022-12-27T19:10:17.472Z,1024.381437
2022-12-27T19:15:17.673Z,1024.378553
2022-12-27T19:20:17.478Z,1024.382511
2022-12-27T19:25:17.570Z,1024.388275
2022-12-27T19:30:17.563Z,1024.303256
2022-12-27T19:35:17.613Z,1024.247962
2022-12-27T19:40:17.483Z,1024.218959
2022-12-27T19:45:17.800Z,1024.198781
2022-12-27T19:50:17.565Z,1024.240027
2022-12-27T19:55:17.584Z,1024.235162
2022-12-27T20:00:17.484Z,1024.156264
2022-12-27T20:05:17.554Z,1024.113393
2022-12-27T20:10:17.578Z,1024.084035
2022-12-27T20:15:17.600Z,1024.104754
2022-12-27T20:20:17.807Z,1024.129010
2022-12-27T20:25:17.487Z,1024.079717
2022-12-27T20:30:17.544Z,1024.156090
2022-12-27T20:35:17.648Z,1024.135732
2022-12-27T20:40:17.495Z,1024.061337
2022-12-27T20:45:17.501Z,1024.035758
2022-12-27T20:50:17.531Z,1023.967489
2022-12-27T20:55:17.836Z,1023.908045
2022-12-27T21:00:17.562Z,1023.839954
2022-12-27T21:05:17.570Z,1023.771865
2022-12-27T21:10:17.613Z,1023.744665
2022-12-27T21:15:17.460Z,1023.714943
2022-12-27T21:20:17.511Z,1023.623617
2022-12-27T21:25:17.483Z,1023.693508
2022-12-27T21:30:17.483Z,1023.676756
2022-12-27T21:35:17.513Z,1023.579665
2022-12-27T21:40:17.488Z,1023.563094
2022-12-27T21:45:17.499Z,1023.500227
2022-12-27T21:50:17.489Z,1023.540398
2022-12-27T21:55:17.539Z,1023.498608
2022-12-27T22:00:17.477Z,1023.458744
2022-12-27T22:05:17.730Z,1023.422596
2022-12-27T22:10:17.499Z,1023.408008
2022-12-27T22:15:17.549Z,1023.346219
2022-12-27T22:20:17.703Z,1023.296502
2022-12-27T22:25:17.564Z,1023.310191
2022-12-27T22:30:17.493Z,1023.244982
2022-12-27T22:35:17.522Z,1023.210216
2022-12-27T22:40:30.813Z,1023.220304
2022-12-27T22:45:17.483Z,1023.253268
2022-12-27T22:50:17.443Z,1023.187518
2022-12-27T22:55:17.511Z,1023.203730
2022-12-27T23:00:17.533Z,1023.126818
2022-12-27T23:05:17.508Z,1023.081975
2022-12-27T23:10:17.758Z,1022.962733
2022-12-27T23:15:17.613Z,1022.851235
2022-12-27T23:20:17.610Z,1022.784947
2022-12-27T23:25:17.468Z,1022.679027
2022-12-27T23:30:17.492Z,1022.575271
2022-12-27T23:35:17.481Z,1022.534910
2022-12-27T23:40:17.730Z,1022.630559
2022-12-27T23:45:17.720Z,1022.640286
2022-12-27T23:50:21.070Z,1022.643168
2022-12-27T23:55:17.730Z,1022.669285
